CheckWX is a tool to help pilots better visualize weather data.  It is not intended as a substitute for an official pre-flight weather briefing.

06:30:45 UTC

EGMC TAF
Southend Airport
Southend, United Kingdom
TAF EGMC 310459Z 3106/3115 36010KT 9999 SCT025 BECMG 3106/3109 06014KT

Mar-31@
06:00 UTC

Mar-31 @ 06:00 UTC

Mar-31@
15:00 UTC

Mar-31 @ 15:00 UTC

TAF EGMC 310459Z 3106/3115 36010KT 9999 SCT025
Wind
  • 360° at 10 KTS
Cloud Levels
  • Scattered at 2,500' AGL

Mar-31@
06:00 UTC

Mar-31 @ 06:00 UTC

Mar-31@
15:00 UTC

Mar-31 @ 15:00 UTC

BECMG 3106/3109 06014KT

Becoming

Becoming Conditions expected by Tue, Mar 31, 2020 @ 09:00 UTC

Wind
  • 060° at 14 KTS
Cloud Levels
  • Scattered at 2,500' AGL